Main page
METAR-TAF:

METAR-TAF

Airports :

Zaragoza Airport

Zaragoza, Spain

latitude: 41-40N, longitude: 001-01W, elevation: 263 m

Current weather observation

The report was made 40 minutes ago, at 20:30 UTC
Wind 17 kt from the West/Northwest
Temperature 3°C
Humidity 65%
Pressure 1029 hPa
Visibility 10 km or more
no clouds below 1500 m and no cumulonimbus

METAR: LEZG 212030Z 29017KT CAVOK 03/M03 Q1029

Time: 22:10 (21:10 UTC)

Forecast

The report was made 4 hours and 10 minutes ago, at 17:00 UTC
Forecast valid from 21 at 18 UTC to 22 at 18 UTC
Wind 20 kt from the Northwest
Visibility 10 km or more
Few clouds at a height of 3000 ft
Becoming
from 21 at 21 UTC to 21 at 22 UTC
Wind 5 kt from the North/Northwest

TAF: LEZG 211700Z 2118/2218 31020KT 9999 FEW030 TX09/2213Z TNM02/2206Z BECMG 2121/2122 33005KT

Weather observations and forecasts of more than 4000 airports (METAR and TAF reports).

The available stations are represented by yellow and red dots on the map.

Hover mouse over dot to see the name of the station.

Then click to see weather observations and forecasts.

To change the map : click on the green buttons with a black cross to zoom in, on the green button with a dash to zoom out, or on the green arrows for adjacent maps.


METAR-TAF: